createdAt,value
2023-02-05T00:01:54.822Z,60.59
2023-02-05T00:06:56.918Z,60.56
2023-02-05T00:11:59.868Z,60.69
2023-02-05T00:17:02.102Z,60.55
2023-02-05T00:22:04.330Z,60.39
2023-02-05T00:27:08.112Z,60.37
2023-02-05T00:32:10.408Z,60.61
2023-02-05T00:37:12.556Z,60.41
2023-02-05T00:42:14.662Z,60.33
2023-02-05T00:47:16.825Z,60.46
2023-02-05T00:52:19.099Z,60.42
2023-02-05T00:57:24.889Z,60.32
2023-02-05T01:02:27.527Z,59.94
2023-02-05T01:07:29.680Z,60.07
2023-02-05T01:12:33.458Z,59.88
2023-02-05T01:17:35.952Z,60.04
2023-02-05T01:22:38.399Z,60.13
2023-02-05T01:27:41.902Z,60.01
2023-02-05T01:32:44.139Z,59.89
2023-02-05T01:37:46.340Z,59.81
2023-02-05T01:42:48.749Z,59.96
2023-02-05T01:48:02.166Z,59.80
2023-02-05T01:53:10.379Z,60.03
2023-02-05T01:58:13.692Z,59.74
2023-02-05T02:03:16.175Z,60.04
2023-02-05T02:08:18.294Z,59.90
2023-02-05T02:13:22.435Z,59.83
2023-02-05T02:18:26.726Z,59.65
2023-02-05T02:23:53.208Z,60.24
2023-02-05T02:29:00.601Z,60.17
2023-02-05T02:34:51.926Z,60.35
2023-02-05T02:40:07.503Z,60.57
2023-02-05T02:45:13.178Z,60.75
2023-02-05T02:50:42.747Z,60.66
2023-02-05T02:55:46.666Z,60.57
2023-02-05T03:00:49.786Z,60.68
2023-02-05T03:05:55.032Z,61.02
2023-02-05T03:11:03.113Z,60.71
2023-02-05T03:16:06.814Z,60.80
2023-02-05T03:21:37.583Z,60.74
2023-02-05T03:26:40.467Z,60.41
2023-02-05T03:31:57.983Z,60.17
2023-02-05T03:37:17.516Z,60.27
2023-02-05T03:42:29.178Z,60.91
2023-02-05T03:47:46.716Z,60.81
2023-02-05T03:52:57.951Z,60.76
2023-02-05T03:58:10.619Z,60.48
2023-02-05T04:03:13.435Z,60.79
2023-02-05T04:08:16.806Z,60.60
2023-02-05T04:13:23.646Z,60.50
2023-02-05T04:18:26.481Z,61.07
2023-02-05T04:23:29.401Z,60.94
2023-02-05T04:28:32.167Z,60.17
2023-02-05T04:33:36.873Z,60.62
2023-02-05T04:38:39.445Z,60.36
2023-02-05T04:43:41.773Z,60.34
2023-02-05T04:48:43.932Z,60.54
2023-02-05T04:53:46.039Z,60.88
2023-02-05T04:58:48.162Z,60.91
2023-02-05T05:03:51.411Z,60.61
2023-02-05T05:08:54.229Z,60.98
2023-02-05T05:13:56.473Z,60.42
2023-02-05T05:18:58.636Z,60.49
2023-02-05T05:24:00.840Z,60.78
2023-02-05T05:29:03.746Z,60.90
2023-02-05T05:34:05.910Z,60.63
2023-02-05T05:39:26.436Z,60.64
2023-02-05T05:44:28.764Z,60.87
2023-02-05T05:49:30.931Z,60.41
2023-02-05T05:54:33.634Z,60.44
2023-02-05T05:59:35.952Z,61.04
2023-02-05T06:04:38.198Z,60.91
2023-02-05T06:09:40.512Z,60.67
2023-02-05T06:14:42.714Z,60.92
2023-02-05T06:19:44.834Z,60.91
2023-02-05T06:24:47.184Z,60.44
2023-02-05T06:29:49.603Z,60.58
2023-02-05T06:34:51.832Z,60.81
2023-02-05T06:39:53.948Z,60.60
2023-02-05T06:44:56.207Z,60.51
2023-02-05T06:49:58.408Z,61.04
2023-02-05T06:55:00.708Z,60.52
2023-02-05T07:00:04.232Z,60.33
2023-02-05T07:05:07.200Z,60.38
2023-02-05T07:10:09.649Z,60.59
2023-02-05T07:15:11.861Z,60.54
2023-02-05T07:20:14.060Z,60.41
2023-02-05T07:25:16.458Z,61.11
2023-02-05T07:30:18.838Z,60.53
2023-02-05T07:35:21.195Z,60.31
2023-02-05T07:40:23.404Z,60.55
2023-02-05T07:45:25.768Z,60.56
2023-02-05T07:50:28.169Z,60.54
2023-02-05T07:55:30.696Z,60.55
2023-02-05T08:00:32.943Z,60.55
2023-02-05T08:05:36.843Z,60.03
2023-02-05T08:10:38.970Z,59.95
2023-02-05T08:15:41.355Z,60.41
2023-02-05T08:20:44.267Z,60.36
2023-02-05T08:25:46.632Z,60.19
2023-02-05T08:30:50.451Z,60.23
2023-02-05T08:35:53.057Z,60.70
2023-02-05T08:40:55.210Z,60.49
2023-02-05T08:45:57.434Z,60.33
2023-02-05T08:50:59.691Z,60.32
2023-02-05T08:56:03.525Z,60.41
2023-02-05T09:01:09.778Z,60.47
2023-02-05T09:06:14.906Z,60.71
2023-02-05T09:11:22.096Z,61.06
2023-02-05T09:16:24.788Z,60.60
2023-02-05T09:21:27.082Z,60.32
2023-02-05T09:26:29.254Z,60.73
2023-02-05T09:31:31.723Z,60.48
2023-02-05T09:36:34.346Z,60.40
2023-02-05T09:42:00.040Z,60.50
2023-02-05T09:47:02.202Z,60.86
2023-02-05T09:52:28.404Z,60.66
2023-02-05T09:57:35.588Z,60.52
2023-02-05T10:02:50.253Z,60.47
2023-02-05T10:07:58.367Z,60.70
2023-02-05T10:13:29.571Z,60.65
2023-02-05T10:18:34.784Z,60.37
2023-02-05T10:23:43.782Z,60.92
2023-02-05T10:29:04.016Z,60.54
2023-02-05T10:34:33.090Z,60.44
2023-02-05T10:39:35.328Z,60.56
2023-02-05T10:44:43.150Z,60.84
2023-02-05T10:49:52.215Z,60.68
2023-02-05T10:54:54.898Z,60.87
2023-02-05T11:00:02.402Z,60.91
2023-02-05T11:05:26.755Z,60.75
2023-02-05T11:10:31.440Z,60.42
2023-02-05T11:15:33.993Z,60.72
2023-02-05T11:20:40.041Z,60.58
2023-02-05T11:25:58.581Z,60.67
2023-02-05T11:31:35.073Z,60.70
2023-02-05T11:36:49.187Z,60.72
2023-02-05T11:41:53.338Z,60.56
2023-02-05T11:46:57.691Z,60.23
2023-02-05T11:52:02.110Z,60.17
2023-02-05T11:57:35.713Z,60.23
2023-02-05T12:02:42.944Z,60.74
2023-02-05T12:07:56.831Z,60.56
2023-02-05T12:13:23.681Z,60.47
2023-02-05T12:19:01.296Z,60.29
2023-02-05T12:24:34.090Z,60.51
2023-02-05T12:30:08.512Z,60.15
2023-02-05T12:35:33.599Z,60.15
2023-02-05T12:41:01.685Z,59.99
2023-02-05T12:46:31.626Z,60.08
2023-02-05T12:51:36.859Z,60.21
2023-02-05T12:56:54.106Z,59.63
2023-02-05T13:02:01.955Z,59.75
2023-02-05T13:07:12.064Z,59.71
2023-02-05T13:12:16.660Z,60.08
2023-02-05T13:17:25.246Z,59.85
2023-02-05T13:22:50.253Z,60.25
2023-02-05T13:28:17.429Z,59.67
2023-02-05T13:33:19.621Z,59.54
2023-02-05T13:38:33.658Z,59.66
2023-02-05T13:43:44.373Z,59.90
2023-02-05T13:49:03.610Z,59.53
2023-02-05T13:54:39.523Z,59.62
2023-02-05T13:59:46.764Z,59.46
2023-02-05T14:04:54.340Z,59.30
2023-02-05T14:10:02.830Z,59.50
2023-02-05T14:15:17.045Z,59.69
2023-02-05T14:20:25.470Z,59.46
2023-02-05T14:25:38.318Z,59.43
2023-02-05T14:31:03.750Z,59.46
2023-02-05T14:36:18.532Z,59.44
2023-02-05T14:41:25.160Z,59.29
2023-02-05T14:46:43.221Z,59.00
2023-02-05T14:51:52.833Z,58.79
2023-02-05T14:57:11.983Z,59.00
2023-02-05T15:02:51.601Z,59.21
2023-02-05T15:08:14.637Z,59.15
2023-02-05T15:13:19.351Z,58.68
2023-02-05T15:18:27.771Z,58.57
2023-02-05T15:23:35.624Z,58.52
2023-02-05T15:28:56.282Z,58.42
2023-02-05T15:34:13.195Z,58.59
2023-02-05T15:39:31.450Z,58.55
2023-02-05T15:44:36.302Z,58.36
2023-02-05T15:49:43.617Z,58.35
2023-02-05T15:54:45.823Z,58.12
2023-02-05T15:59:48.602Z,58.24
2023-02-05T16:05:18.398Z,58.17
2023-02-05T16:10:24.657Z,58.12
2023-02-05T16:15:35.440Z,58.03
2023-02-05T16:20:42.232Z,58.11
2023-02-05T16:25:50.915Z,58.14
2023-02-05T16:30:57.135Z,57.98
2023-02-05T16:36:02.683Z,57.80
2023-02-05T16:41:32.314Z,57.91
2023-02-05T16:46:36.578Z,58.13
2023-02-05T16:51:47.579Z,58.12
2023-02-05T16:57:07.167Z,58.30
2023-02-05T17:02:40.977Z,57.85
2023-02-05T17:07:43.406Z,57.66
2023-02-05T17:12:54.780Z,57.91
2023-02-05T17:18:04.762Z,58.40
2023-02-05T17:23:09.080Z,58.37
2023-02-05T17:28:16.231Z,58.39
2023-02-05T17:33:24.529Z,58.09
2023-02-05T17:38:26.773Z,58.23
2023-02-05T17:43:28.886Z,58.34
2023-02-05T17:48:31.039Z,57.82
2023-02-05T17:53:33.172Z,58.24
2023-02-05T17:58:35.357Z,58.08
2023-02-05T18:03:38.273Z,58.79
2023-02-05T18:08:40.987Z,58.64
2023-02-05T18:13:43.306Z,58.80
2023-02-05T18:18:45.525Z,58.48
2023-02-05T18:23:53.070Z,58.28
2023-02-05T18:28:55.301Z,58.35
2023-02-05T18:33:57.423Z,58.56
2023-02-05T18:38:59.613Z,58.62
2023-02-05T18:44:01.856Z,58.68
2023-02-05T18:49:04.581Z,58.28
2023-02-05T18:54:09.700Z,58.51
2023-02-05T18:59:15.602Z,58.27
2023-02-05T19:04:18.896Z,58.46
2023-02-05T19:09:23.264Z,58.11
2023-02-05T19:14:26.281Z,58.48
2023-02-05T19:19:29.168Z,58.60
2023-02-05T19:24:31.502Z,58.56
2023-02-05T19:29:38.393Z,58.31
2023-02-05T19:34:43.414Z,58.64
2023-02-05T19:39:46.297Z,58.27
2023-02-05T19:44:48.564Z,58.46
2023-02-05T19:49:50.786Z,58.27
2023-02-05T19:54:52.975Z,58.57
2023-02-05T19:59:55.236Z,58.45
2023-02-05T20:04:57.571Z,58.22
2023-02-05T20:09:59.703Z,57.99
2023-02-05T20:15:02.034Z,58.34
2023-02-05T20:20:12.760Z,58.06
2023-02-05T20:25:21.108Z,58.26
2023-02-05T20:30:41.836Z,58.26
2023-02-05T20:35:44.045Z,58.57
2023-02-05T20:40:46.086Z,58.19
2023-02-05T20:45:48.273Z,58.23
2023-02-05T20:50:50.644Z,58.67
2023-02-05T20:55:52.727Z,57.91
2023-02-05T21:00:54.843Z,58.13
2023-02-05T21:05:57.924Z,58.52
2023-02-05T21:11:00.089Z,58.46
2023-02-05T21:16:03.052Z,58.18
2023-02-05T21:21:10.262Z,58.06
2023-02-05T21:26:30.781Z,58.98
2023-02-05T21:31:39.446Z,58.13
2023-02-05T21:36:42.210Z,58.20
2023-02-05T21:41:47.727Z,58.11
2023-02-05T21:46:49.894Z,58.11
2023-02-05T21:51:53.593Z,58.09
2023-02-05T21:56:56.123Z,58.19
2023-02-05T22:01:58.424Z,58.01
2023-02-05T22:07:00.667Z,58.15
2023-02-05T22:12:04.144Z,58.04
2023-02-05T22:17:06.307Z,58.20
2023-02-05T22:22:08.677Z,58.25
2023-02-05T22:27:10.751Z,58.17
2023-02-05T22:32:12.792Z,58.27
2023-02-05T22:37:14.848Z,58.72
2023-02-05T22:42:18.952Z,57.96
2023-02-05T22:47:21.229Z,58.03
2023-02-05T22:52:23.285Z,58.10
2023-02-05T22:57:25.393Z,58.17
2023-02-05T23:02:27.458Z,57.87
2023-02-05T23:07:29.522Z,57.72
2023-02-05T23:12:31.688Z,58.33
2023-02-05T23:17:36.149Z,59.04
2023-02-05T23:22:38.377Z,58.07
2023-02-05T23:27:41.654Z,57.87
2023-02-05T23:32:43.784Z,58.12
2023-02-05T23:37:45.826Z,58.04
2023-02-05T23:42:47.893Z,57.66
2023-02-05T23:47:49.968Z,57.01
2023-02-05T23:52:52.057Z,57.29
2023-02-05T23:57:54.108Z,57.10
